sensor_id;sensor_type;location;lat;lon;timestamp;P1;durP1;ratioP1;P2;durP2;ratioP2
30466;SDS011;17258;52.560;13.046;2023-11-22T00:01:18;4.53;;;3.73;;
30466;SDS011;17258;52.560;13.046;2023-11-22T00:11:19;2.78;;;2.58;;
30466;SDS011;17258;52.560;13.046;2023-11-22T00:21:19;2.97;;;2.70;;
30466;SDS011;17258;52.560;13.046;2023-11-22T00:31:20;3.35;;;2.60;;
30466;SDS011;17258;52.560;13.046;2023-11-22T00:41:21;3.63;;;2.90;;
30466;SDS011;17258;52.560;13.046;2023-11-22T00:51:22;3.17;;;2.85;;
30466;SDS011;17258;52.560;13.046;2023-11-22T01:01:22;3.27;;;2.47;;
30466;SDS011;17258;52.560;13.046;2023-11-22T01:11:23;3.23;;;3.00;;
30466;SDS011;17258;52.560;13.046;2023-11-22T01:21:24;3.33;;;3.03;;
30466;SDS011;17258;52.560;13.046;2023-11-22T01:31:25;2.83;;;2.63;;
30466;SDS011;17258;52.560;13.046;2023-11-22T01:41:27;5.05;;;3.28;;
30466;SDS011;17258;52.560;13.046;2023-11-22T01:51:29;3.90;;;3.50;;
30466;SDS011;17258;52.560;13.046;2023-11-22T02:01:30;3.45;;;2.97;;
30466;SDS011;17258;52.560;13.046;2023-11-22T02:11:31;5.03;;;3.10;;
30466;SDS011;17258;52.560;13.046;2023-11-22T02:21:32;2.90;;;2.70;;
30466;SDS011;17258;52.560;13.046;2023-11-22T02:31:33;3.75;;;3.15;;
30466;SDS011;17258;52.560;13.046;2023-11-22T02:41:34;3.73;;;3.53;;
30466;SDS011;17258;52.560;13.046;2023-11-22T02:51:35;4.28;;;3.97;;
30466;SDS011;17258;52.560;13.046;2023-11-22T03:01:35;3.30;;;3.00;;
30466;SDS011;17258;52.560;13.046;2023-11-22T03:11:36;3.67;;;3.37;;
30466;SDS011;17258;52.560;13.046;2023-11-22T03:21:39;2.95;;;2.75;;
30466;SDS011;17258;52.560;13.046;2023-11-22T03:31:41;5.43;;;4.72;;
30466;SDS011;17258;52.560;13.046;2023-11-22T03:41:42;4.45;;;4.05;;
30466;SDS011;17258;52.560;13.046;2023-11-22T03:51:43;11.55;;;10.35;;
30466;SDS011;17258;52.560;13.046;2023-11-22T04:01:43;6.73;;;6.13;;
30466;SDS011;17258;52.560;13.046;2023-11-22T04:11:44;3.83;;;3.47;;
30466;SDS011;17258;52.560;13.046;2023-11-22T04:21:45;5.10;;;3.58;;
30466;SDS011;17258;52.560;13.046;2023-11-22T04:31:46;4.23;;;3.40;;
30466;SDS011;17258;52.560;13.046;2023-11-22T04:41:47;3.65;;;3.13;;
30466;SDS011;17258;52.560;13.046;2023-11-22T04:51:48;5.13;;;4.73;;
30466;SDS011;17258;52.560;13.046;2023-11-22T05:01:50;4.00;;;3.70;;
30466;SDS011;17258;52.560;13.046;2023-11-22T05:11:50;4.10;;;3.70;;
30466;SDS011;17258;52.560;13.046;2023-11-22T05:21:52;4.90;;;4.43;;
30466;SDS011;17258;52.560;13.046;2023-11-22T05:31:52;4.53;;;4.20;;
30466;SDS011;17258;52.560;13.046;2023-11-22T05:41:53;4.60;;;4.20;;
30466;SDS011;17258;52.560;13.046;2023-11-22T05:51:54;4.50;;;4.03;;
30466;SDS011;17258;52.560;13.046;2023-11-22T06:01:55;6.90;;;4.53;;
30466;SDS011;17258;52.560;13.046;2023-11-22T06:11:55;4.23;;;3.93;;
30466;SDS011;17258;52.560;13.046;2023-11-22T06:21:56;3.83;;;3.43;;
30466;SDS011;17258;52.560;13.046;2023-11-22T06:31:57;3.97;;;3.70;;
30466;SDS011;17258;52.560;13.046;2023-11-22T06:41:58;4.28;;;3.88;;
30466;SDS011;17258;52.560;13.046;2023-11-22T06:51:58;4.65;;;4.25;;
30466;SDS011;17258;52.560;13.046;2023-11-22T07:01:59;5.57;;;4.35;;
30466;SDS011;17258;52.560;13.046;2023-11-22T07:12:00;3.70;;;3.50;;
30466;SDS011;17258;52.560;13.046;2023-11-22T07:22:01;8.17;;;4.63;;
30466;SDS011;17258;52.560;13.046;2023-11-22T07:32:04;8.43;;;5.32;;
30466;SDS011;17258;52.560;13.046;2023-11-22T07:42:05;5.53;;;4.47;;
30466;SDS011;17258;52.560;13.046;2023-11-22T07:52:09;4.32;;;3.92;;
30466;SDS011;17258;52.560;13.046;2023-11-22T08:02:13;5.28;;;4.85;;
30466;SDS011;17258;52.560;13.046;2023-11-22T08:12:18;7.18;;;5.45;;
30466;SDS011;17258;52.560;13.046;2023-11-22T08:22:19;5.10;;;4.28;;
30466;SDS011;17258;52.560;13.046;2023-11-22T08:32:19;4.60;;;4.20;;
30466;SDS011;17258;52.560;13.046;2023-11-22T08:42:23;5.15;;;4.57;;
30466;SDS011;17258;52.560;13.046;2023-11-22T08:52:24;5.15;;;4.72;;
30466;SDS011;17258;52.560;13.046;2023-11-22T09:02:24;7.78;;;4.60;;
30466;SDS011;17258;52.560;13.046;2023-11-22T09:12:26;8.05;;;5.15;;
30466;SDS011;17258;52.560;13.046;2023-11-22T09:22:27;5.93;;;4.47;;
30466;SDS011;17258;52.560;13.046;2023-11-22T09:32:28;4.00;;;3.70;;
30466;SDS011;17258;52.560;13.046;2023-11-22T09:42:28;5.20;;;4.80;;
30466;SDS011;17258;52.560;13.046;2023-11-22T09:52:30;4.82;;;4.32;;
30466;SDS011;17258;52.560;13.046;2023-11-22T10:02:34;5.50;;;5.00;;
30466;SDS011;17258;52.560;13.046;2023-11-22T10:12:35;7.00;;;5.30;;
30466;SDS011;17258;52.560;13.046;2023-11-22T10:22:46;5.50;;;4.60;;
30466;SDS011;17258;52.560;13.046;2023-11-22T10:32:50;5.43;;;4.88;;
30466;SDS011;17258;52.560;13.046;2023-11-22T10:42:52;6.18;;;5.55;;
30466;SDS011;17258;52.560;13.046;2023-11-22T10:52:56;6.85;;;5.97;;
30466;SDS011;17258;52.560;13.046;2023-11-22T11:03:07;5.53;;;5.03;;
30466;SDS011;17258;52.560;13.046;2023-11-22T11:13:13;5.93;;;5.47;;
30466;SDS011;17258;52.560;13.046;2023-11-22T11:23:14;5.27;;;4.87;;
30466;SDS011;17258;52.560;13.046;2023-11-22T11:33:27;6.28;;;5.68;;
30466;SDS011;17258;52.560;13.046;2023-11-22T11:43:43;7.13;;;6.43;;
30466;SDS011;17258;52.560;13.046;2023-11-22T11:53:48;7.00;;;6.30;;
30466;SDS011;17258;52.560;13.046;2023-11-22T12:03:49;5.57;;;5.15;;
30466;SDS011;17258;52.560;13.046;2023-11-22T12:13:49;6.50;;;5.90;;
30466;SDS011;17258;52.560;13.046;2023-11-22T12:23:52;6.03;;;5.43;;
30466;SDS011;17258;52.560;13.046;2023-11-22T12:33:54;6.03;;;5.45;;
30466;SDS011;17258;52.560;13.046;2023-11-22T12:44:02;6.78;;;5.63;;
30466;SDS011;17258;52.560;13.046;2023-11-22T12:54:07;4.82;;;4.43;;
30466;SDS011;17258;52.560;13.046;2023-11-22T13:04:08;5.80;;;4.87;;
30466;SDS011;17258;52.560;13.046;2023-11-22T13:14:08;5.80;;;4.87;;
30466;SDS011;17258;52.560;13.046;2023-11-22T13:24:09;9.50;;;4.90;;
30466;SDS011;17258;52.560;13.046;2023-11-22T13:34:12;5.20;;;4.70;;
30466;SDS011;17258;52.560;13.046;2023-11-22T13:44:13;4.53;;;4.20;;
30466;SDS011;17258;52.560;13.046;2023-11-22T13:54:13;6.00;;;4.17;;
30466;SDS011;17258;52.560;13.046;2023-11-22T14:04:14;5.73;;;4.50;;
30466;SDS011;17258;52.560;13.046;2023-11-22T14:14:15;6.85;;;4.35;;
30466;SDS011;17258;52.560;13.046;2023-11-22T14:24:18;5.63;;;5.13;;
30466;SDS011;17258;52.560;13.046;2023-11-22T14:34:19;6.03;;;4.18;;
30466;SDS011;17258;52.560;13.046;2023-11-22T14:44:20;5.50;;;5.05;;
30466;SDS011;17258;52.560;13.046;2023-11-22T14:54:21;5.53;;;4.97;;
30466;SDS011;17258;52.560;13.046;2023-11-22T15:04:22;4.67;;;4.27;;
30466;SDS011;17258;52.560;13.046;2023-11-22T15:14:24;4.80;;;4.40;;
30466;SDS011;17258;52.560;13.046;2023-11-22T15:24:25;6.57;;;6.00;;
30466;SDS011;17258;52.560;13.046;2023-11-22T15:34:26;7.03;;;5.53;;
30466;SDS011;17258;52.560;13.046;2023-11-22T15:44:28;7.43;;;4.70;;
30466;SDS011;17258;52.560;13.046;2023-11-22T15:54:29;7.35;;;6.65;;
30466;SDS011;17258;52.560;13.046;2023-11-22T16:04:29;4.53;;;4.13;;
30466;SDS011;17258;52.560;13.046;2023-11-22T16:14:30;9.73;;;5.30;;
30466;SDS011;17258;52.560;13.046;2023-11-22T16:24:31;6.57;;;5.25;;
30466;SDS011;17258;52.560;13.046;2023-11-22T16:34:32;6.60;;;5.10;;
30466;SDS011;17258;52.560;13.046;2023-11-22T16:44:32;4.53;;;4.15;;
30466;SDS011;17258;52.560;13.046;2023-11-22T16:54:34;6.80;;;4.77;;
30466;SDS011;17258;52.560;13.046;2023-11-22T17:04:39;5.50;;;5.00;;
30466;SDS011;17258;52.560;13.046;2023-11-22T17:14:42;4.53;;;4.13;;
30466;SDS011;17258;52.560;13.046;2023-11-22T17:24:43;5.80;;;4.90;;
30466;SDS011;17258;52.560;13.046;2023-11-22T17:34:44;4.97;;;4.32;;
30466;SDS011;17258;52.560;13.046;2023-11-22T17:44:44;4.85;;;4.28;;
30466;SDS011;17258;52.560;13.046;2023-11-22T17:54:49;5.35;;;4.47;;
30466;SDS011;17258;52.560;13.046;2023-11-22T18:04:50;6.43;;;5.40;;
30466;SDS011;17258;52.560;13.046;2023-11-22T18:14:51;4.93;;;4.43;;
30466;SDS011;17258;52.560;13.046;2023-11-22T18:24:51;9.83;;;5.73;;
30466;SDS011;17258;52.560;13.046;2023-11-22T18:34:52;6.57;;;5.82;;
30466;SDS011;17258;52.560;13.046;2023-11-22T18:44:53;6.43;;;5.82;;
30466;SDS011;17258;52.560;13.046;2023-11-22T18:54:55;7.47;;;6.65;;
30466;SDS011;17258;52.560;13.046;2023-11-22T19:04:56;8.45;;;7.70;;
30466;SDS011;17258;52.560;13.046;2023-11-22T19:14:58;9.35;;;8.43;;
30466;SDS011;17258;52.560;13.046;2023-11-22T19:24:58;7.97;;;7.13;;
30466;SDS011;17258;52.560;13.046;2023-11-22T19:34:59;8.73;;;7.83;;
30466;SDS011;17258;52.560;13.046;2023-11-22T19:45:03;8.30;;;7.45;;
30466;SDS011;17258;52.560;13.046;2023-11-22T19:55:04;10.00;;;8.10;;
30466;SDS011;17258;52.560;13.046;2023-11-22T20:05:06;10.50;;;7.88;;
30466;SDS011;17258;52.560;13.046;2023-11-22T20:15:07;9.30;;;8.10;;
30466;SDS011;17258;52.560;13.046;2023-11-22T20:25:08;7.25;;;6.65;;
30466;SDS011;17258;52.560;13.046;2023-11-22T20:35:09;12.85;;;9.75;;
30466;SDS011;17258;52.560;13.046;2023-11-22T20:45:10;9.88;;;8.98;;
30466;SDS011;17258;52.560;13.046;2023-11-22T20:55:11;10.52;;;9.38;;
30466;SDS011;17258;52.560;13.046;2023-11-22T21:05:14;9.75;;;8.85;;
30466;SDS011;17258;52.560;13.046;2023-11-22T21:15:14;10.95;;;9.50;;
30466;SDS011;17258;52.560;13.046;2023-11-22T21:25:15;9.07;;;8.23;;
30466;SDS011;17258;52.560;13.046;2023-11-22T21:35:16;11.00;;;9.90;;
30466;SDS011;17258;52.560;13.046;2023-11-22T21:45:16;10.25;;;9.25;;
30466;SDS011;17258;52.560;13.046;2023-11-22T21:55:17;9.98;;;9.10;;
30466;SDS011;17258;52.560;13.046;2023-11-22T22:05:18;9.77;;;8.77;;
30466;SDS011;17258;52.560;13.046;2023-11-22T22:15:18;9.33;;;8.43;;
30466;SDS011;17258;52.560;13.046;2023-11-22T22:25:20;10.45;;;8.50;;
30466;SDS011;17258;52.560;13.046;2023-11-22T22:35:22;10.68;;;8.00;;
30466;SDS011;17258;52.560;13.046;2023-11-22T22:45:25;8.20;;;7.37;;
30466;SDS011;17258;52.560;13.046;2023-11-22T22:55:26;7.78;;;6.40;;
30466;SDS011;17258;52.560;13.046;2023-11-22T23:05:27;7.53;;;6.93;;
30466;SDS011;17258;52.560;13.046;2023-11-22T23:15:27;6.93;;;6.23;;
30466;SDS011;17258;52.560;13.046;2023-11-22T23:25:28;5.97;;;5.43;;
30466;SDS011;17258;52.560;13.046;2023-11-22T23:35:29;7.43;;;6.00;;
30466;SDS011;17258;52.560;13.046;2023-11-22T23:45:29;6.38;;;5.82;;
30466;SDS011;17258;52.560;13.046;2023-11-22T23:55:32;6.45;;;5.85;;
